Time;durP1;ratioP1;P1;durP2;ratioP2;P2;SDS_P1;SDS_P2;PMS_P1;PMS_P2;Temp;Humidity;BMP_temperature;BMP_pressure;BME280_temperature;BME280_humidity;BME280_pressure;Samples;Min_cycle;Max_cycle;Signal;HPM_P1;HPM_P2
2021/05/22 00:02:24;;;;;;;1.65;0.52;;;12.50;87.20;;;;;;4995347;28;20133;-77
2021/05/22 00:04:51;;;;;;;1.58;0.60;;;12.50;87.40;;;;;;4994997;28;20077;-76
2021/05/22 00:07:18;;;;;;;2.03;0.70;;;12.40;87.30;;;;;;4995654;28;20125;-77
2021/05/22 00:09:45;;;;;;;1.48;0.55;;;12.50;87.40;;;;;;4994890;28;20137;-76
2021/05/22 00:12:13;;;;;;;1.13;0.50;;;12.50;87.50;;;;;;4995065;28;20128;-77
2021/05/22 00:14:40;;;;;;;2.65;0.63;;;12.50;87.80;;;;;;4994707;28;20133;-77
2021/05/22 00:17:06;;;;;;;2.15;0.68;;;12.40;88.00;;;;;;4994990;28;20133;-77
2021/05/22 00:19:34;;;;;;;2.17;0.60;;;12.40;87.70;;;;;;4994817;28;20133;-77
2021/05/22 00:22:00;;;;;;;2.03;0.60;;;12.40;87.60;;;;;;4994849;28;20455;-77
2021/05/22 00:24:27;;;;;;;3.50;0.77;;;12.30;87.50;;;;;;4994437;28;20081;-77
2021/05/22 00:26:54;;;;;;;2.70;0.60;;;12.30;87.60;;;;;;4994653;28;20134;-77
2021/05/22 00:29:21;;;;;;;1.95;0.70;;;12.20;87.80;;;;;;4994754;28;20133;-77
2021/05/22 00:31:47;;;;;;;2.75;0.80;;;12.20;87.80;;;;;;4994687;28;20066;-77
2021/05/22 00:34:14;;;;;;;3.13;0.88;;;12.20;87.80;;;;;;4994424;28;20220;-77
2021/05/22 00:36:41;;;;;;;2.38;0.70;;;12.20;88.00;;;;;;4994615;28;20074;-77
2021/05/22 00:39:08;;;;;;;2.90;0.80;;;12.10;87.90;;;;;;4994518;28;20125;-77
2021/05/22 00:41:35;;;;;;;3.25;0.80;;;12.10;88.10;;;;;;4994603;28;20467;-77
2021/05/22 00:44:01;;;;;;;2.00;0.63;;;12.10;87.90;;;;;;4994487;28;20122;-77
2021/05/22 00:46:28;;;;;;;2.40;0.65;;;12.00;87.80;;;;;;4994160;28;20133;-77
2021/05/22 00:48:54;;;;;;;1.83;0.60;;;12.00;87.70;;;;;;4994526;28;20050;-77
2021/05/22 00:51:21;;;;;;;3.17;0.82;;;12.00;87.90;;;;;;4994440;28;20133;-76
2021/05/22 00:53:48;;;;;;;1.80;0.60;;;12.00;87.80;;;;;;4993931;28;20559;-77
2021/05/22 00:56:15;;;;;;;1.73;0.52;;;12.10;87.80;;;;;;4994114;28;20081;-77
2021/05/22 00:58:43;;;;;;;1.17;0.43;;;12.10;87.70;;;;;;4994256;28;20046;-77
2021/05/22 01:01:09;;;;;;;1.15;0.50;;;12.10;87.70;;;;;;4994193;28;20161;-77
2021/05/22 01:03:42;;;;;;;4.07;0.75;;;12.10;87.50;;;;;;4993991;28;20073;-77
2021/05/22 01:06:16;;;;;;;2.25;0.75;;;12.10;87.40;;;;;;4994019;28;20050;-77
2021/05/22 01:08:47;;;;;;;2.05;0.60;;;12.10;87.40;;;;;;4993628;28;20463;-77
2021/05/22 01:11:20;;;;;;;1.33;0.52;;;12.10;87.40;;;;;;4993954;28;20125;-77
2021/05/22 01:13:53;;;;;;;2.72;0.60;;;12.10;87.60;;;;;;4993880;28;20094;-77
2021/05/22 01:16:21;;;;;;;1.90;0.60;;;12.10;87.70;;;;;;4993867;28;20548;-77
2021/05/22 01:18:49;;;;;;;1.92;0.50;;;12.10;87.70;;;;;;4993542;28;20129;-76
2021/05/22 01:21:16;;;;;;;2.80;0.75;;;12.10;87.60;;;;;;4993919;28;20133;-77
2021/05/22 01:23:51;;;;;;;1.63;0.60;;;12.10;87.70;;;;;;4993386;28;20050;-77
2021/05/22 01:26:21;;;;;;;3.78;0.70;;;12.00;87.80;;;;;;4993702;28;20133;-76
2021/05/22 01:28:48;;;;;;;2.13;0.60;;;12.10;87.80;;;;;;4993389;28;20133;-76
2021/05/22 01:31:14;;;;;;;2.22;0.75;;;12.10;87.80;;;;;;4993448;28;20085;-77
2021/05/22 01:33:41;;;;;;;1.60;0.50;;;12.10;87.90;;;;;;4993532;28;20135;-77
2021/05/22 01:36:08;;;;;;;2.72;0.77;;;12.10;88.10;;;;;;4993407;28;20479;-76
2021/05/22 01:38:35;;;;;;;3.08;0.70;;;12.10;88.10;;;;;;4993454;28;20534;-77
2021/05/22 01:41:02;;;;;;;1.63;0.60;;;12.00;88.40;;;;;;4993362;28;20563;-77
2021/05/22 01:43:30;;;;;;;3.75;0.90;;;12.00;88.60;;;;;;4993338;28;20126;-76
2021/05/22 01:45:57;;;;;;;2.83;0.70;;;12.00;88.60;;;;;;4993559;28;20046;-77
2021/05/22 01:48:26;;;;;;;2.42;0.70;;;12.00;88.80;;;;;;4976012;28;20078;-76
2021/05/22 01:51:02;;;;;;;2.55;0.70;;;12.00;88.90;;;;;;4993136;28;20084;-77
2021/05/22 01:53:30;;;;;;;3.08;0.70;;;12.00;88.80;;;;;;4993558;28;20147;-77
2021/05/22 01:55:57;;;;;;;3.22;0.80;;;12.00;89.00;;;;;;4993481;28;20137;-77
2021/05/22 01:58:24;;;;;;;2.85;0.70;;;12.00;88.80;;;;;;4996704;28;20530;-76
2021/05/22 02:00:52;;;;;;;2.63;0.80;;;12.00;88.90;;;;;;5005180;28;20046;-76
2021/05/22 02:03:26;;;;;;;4.20;1.00;;;12.00;88.80;;;;;;5008297;28;20070;-76
2021/05/22 02:05:56;;;;;;;3.15;0.80;;;12.10;88.90;;;;;;5007445;28;20076;-77
2021/05/22 02:08:24;;;;;;;3.00;0.60;;;12.00;88.80;;;;;;5008454;28;20055;-78
2021/05/22 02:10:51;;;;;;;2.75;0.63;;;12.00;88.90;;;;;;5006887;28;20086;-77
2021/05/22 02:13:19;;;;;;;2.75;0.70;;;12.00;88.90;;;;;;5007510;28;20077;-77
2021/05/22 02:15:53;;;;;;;2.95;0.70;;;12.00;88.80;;;;;;5003148;28;20562;-77
2021/05/22 02:18:20;;;;;;;2.08;0.77;;;12.00;88.90;;;;;;4997142;28;20143;-77
2021/05/22 02:20:47;;;;;;;3.60;0.80;;;12.00;89.00;;;;;;4996883;28;20153;-77
2021/05/22 02:23:15;;;;;;;3.92;0.70;;;12.00;89.10;;;;;;4996946;28;20081;-77
2021/05/22 02:25:42;;;;;;;2.88;1.00;;;12.00;89.20;;;;;;4996785;28;20121;-77
2021/05/22 02:28:10;;;;;;;2.35;0.73;;;12.00;89.10;;;;;;4997120;28;20078;-77
2021/05/22 02:30:41;;;;;;;2.28;0.70;;;12.00;89.30;;;;;;4996832;28;20130;-77
2021/05/22 02:33:11;;;;;;;4.80;0.80;;;12.00;89.40;;;;;;4981951;28;20145;-77
2021/05/22 02:35:40;;;;;;;6.07;1.00;;;12.00;89.40;;;;;;4996707;28;20133;-77
2021/05/22 02:38:08;;;;;;;3.13;0.95;;;12.00;89.60;;;;;;4996800;28;20050;-77
2021/05/22 02:40:36;;;;;;;2.35;0.80;;;12.00;89.80;;;;;;4996438;28;20049;-77
2021/05/22 02:43:08;;;;;;;5.85;0.70;;;12.00;90.00;;;;;;4981160;28;20057;-77
2021/05/22 02:45:39;;;;;;;3.95;0.80;;;12.00;90.10;;;;;;4996648;28;20133;-77
2021/05/22 02:48:12;;;;;;;2.58;0.70;;;12.00;90.40;;;;;;4979280;28;20567;-77
2021/05/22 02:50:39;;;;;;;4.60;0.93;;;11.90;90.50;;;;;;4996324;28;20089;-77
2021/05/22 02:53:09;;;;;;;3.50;1.00;;;12.00;90.50;;;;;;4996668;28;20129;-78
2021/05/22 02:55:37;;;;;;;2.55;0.73;;;11.90;90.60;;;;;;4996565;28;20124;-77
2021/05/22 02:58:05;;;;;;;2.30;0.65;;;11.90;90.80;;;;;;4996407;28;20074;-78
2021/05/22 03:00:33;;;;;;;2.65;0.70;;;11.90;90.80;;;;;;4996066;28;20519;-77
2021/05/22 03:03:00;;;;;;;4.45;0.95;;;11.90;91.00;;;;;;4994195;28;20136;-77
2021/05/22 03:05:28;;;;;;;4.03;0.65;;;11.80;91.20;;;;;;4994680;28;20137;-77
2021/05/22 03:07:54;;;;;;;5.30;0.80;;;11.80;91.30;;;;;;4992688;28;20137;-77
2021/05/22 03:10:22;;;;;;;2.53;0.73;;;11.70;91.60;;;;;;4994130;28;20169;-78
2021/05/22 03:12:48;;;;;;;2.05;0.70;;;11.70;91.70;;;;;;4993527;28;20141;-77
2021/05/22 03:15:16;;;;;;;3.30;0.70;;;11.70;91.80;;;;;;4994465;28;20177;-77
2021/05/22 03:17:42;;;;;;;2.88;0.70;;;11.60;92.00;;;;;;4993666;28;20078;-77
2021/05/22 03:20:10;;;;;;;2.47;0.65;;;11.60;92.00;;;;;;4993982;28;20222;-77
2021/05/22 03:22:38;;;;;;;2.83;0.80;;;11.60;92.10;;;;;;4998854;28;20077;-77
2021/05/22 03:25:06;;;;;;;2.38;0.70;;;11.60;92.30;;;;;;4988690;28;20089;-77
2021/05/22 03:27:32;;;;;;;3.78;1.00;;;11.50;92.30;;;;;;5003778;28;20089;-76
2021/05/22 03:29:59;;;;;;;3.60;0.80;;;11.50;92.40;;;;;;4994793;28;20133;-77
2021/05/22 03:32:25;;;;;;;2.03;0.70;;;11.50;92.50;;;;;;4993614;28;20140;-77
2021/05/22 03:34:52;;;;;;;3.50;0.80;;;11.40;92.60;;;;;;4993020;28;20576;-77
2021/05/22 03:37:19;;;;;;;1.58;0.60;;;11.40;92.60;;;;;;4993466;28;20074;-77
2021/05/22 03:39:46;;;;;;;1.80;0.50;;;11.40;92.80;;;;;;4993602;28;20089;-77
2021/05/22 03:42:13;;;;;;;3.88;0.60;;;11.40;92.90;;;;;;4993333;28;20042;-77
2021/05/22 03:44:40;;;;;;;3.92;0.85;;;11.40;93.20;;;;;;4992779;28;20066;-77
2021/05/22 03:47:06;;;;;;;3.10;0.80;;;11.40;93.00;;;;;;4993440;28;20046;-77
2021/05/22 03:49:34;;;;;;;2.75;0.70;;;11.40;93.10;;;;;;4993329;28;20577;-77
2021/05/22 03:52:00;;;;;;;2.97;0.60;;;11.30;93.30;;;;;;4992506;28;20055;-78
2021/05/22 03:54:27;;;;;;;2.25;0.60;;;11.30;93.40;;;;;;4993339;28;20129;-77
2021/05/22 03:56:54;;;;;;;2.35;0.60;;;11.20;93.40;;;;;;4992868;28;20133;-78
2021/05/22 03:59:21;;;;;;;2.45;0.93;;;11.30;93.50;;;;;;4993342;28;20128;-78
2021/05/22 04:01:48;;;;;;;2.50;0.60;;;11.20;93.60;;;;;;4994609;28;20129;-78
2021/05/22 04:04:15;;;;;;;2.17;0.70;;;11.20;93.70;;;;;;4995430;28;20135;-77
2021/05/22 04:06:41;;;;;;;2.90;0.52;;;11.20;93.70;;;;;;4994814;28;20133;-77
2021/05/22 04:09:08;;;;;;;2.85;0.80;;;11.20;93.80;;;;;;4995015;28;20074;-77
2021/05/22 04:11:34;;;;;;;2.45;0.63;;;11.20;93.80;;;;;;4977596;28;20129;-77
2021/05/22 04:14:02;;;;;;;2.65;0.75;;;11.20;93.90;;;;;;4994949;28;20452;-77
2021/05/22 04:16:29;;;;;;;3.47;0.80;;;11.20;94.00;;;;;;4994959;28;20133;-77
2021/05/22 04:18:55;;;;;;;1.23;0.55;;;11.20;94.00;;;;;;4994804;28;20129;-77
2021/05/22 04:21:22;;;;;;;4.50;0.63;;;11.20;94.10;;;;;;4994456;28;20046;-77
2021/05/22 04:23:49;;;;;;;1.83;0.43;;;11.30;94.00;;;;;;4994585;28;20445;-77
2021/05/22 04:26:15;;;;;;;3.55;0.80;;;11.30;94.30;;;;;;4994675;28;20077;-77
2021/05/22 04:28:42;;;;;;;1.70;0.60;;;11.40;94.00;;;;;;4994676;28;20078;-82
2021/05/22 04:31:09;;;;;;;2.92;0.65;;;11.40;93.90;;;;;;4994966;28;20086;-81
2021/05/22 04:33:36;;;;;;;3.13;0.60;;;11.40;93.90;;;;;;4994589;28;20563;-82
2021/05/22 04:36:04;;;;;;;1.95;0.65;;;11.40;93.90;;;;;;5083372;23;20059;-83
2021/05/22 04:38:30;;;;;;;2.13;0.65;;;11.40;93.90;;;;;;4978104;28;20125;-84
2021/05/22 04:40:57;;;;;;;3.60;0.82;;;11.40;94.00;;;;;;4993881;28;20086;-85
2021/05/22 04:43:24;;;;;;;2.50;0.70;;;11.50;94.00;;;;;;4982477;28;20491;-85
2021/05/22 04:45:50;;;;;;;3.03;0.93;;;11.50;94.00;;;;;;4991377;28;20476;-85
2021/05/22 04:48:18;;;;;;;2.25;0.60;;;11.50;94.00;;;;;;4997982;28;20124;-84
2021/05/22 04:50:44;;;;;;;2.90;0.80;;;11.50;94.00;;;;;;5004947;28;20061;-85
2021/05/22 04:53:11;;;;;;;3.63;1.05;;;11.50;94.10;;;;;;4994836;28;20140;-84
2021/05/22 04:55:37;;;;;;;2.35;0.60;;;11.40;94.20;;;;;;4995914;28;20133;-84
2021/05/22 04:58:04;;;;;;;2.83;0.60;;;11.40;94.30;;;;;;5011334;28;20050;-84
2021/05/22 05:00:30;;;;;;;2.95;0.80;;;11.40;94.40;;;;;;5007520;28;20460;-86
2021/05/22 05:02:59;;;;;;;3.15;0.70;;;11.30;94.50;;;;;;4994853;28;20134;-86
2021/05/22 05:05:26;;;;;;;2.70;0.60;;;11.40;94.70;;;;;;4996391;28;20046;-85
2021/05/22 05:07:53;;;;;;;2.42;0.93;;;11.40;94.70;;;;;;4994832;28;20149;-84
2021/05/22 05:10:21;;;;;;;3.10;0.85;;;11.40;95.00;;;;;;4994982;28;20050;-84
2021/05/22 05:12:48;;;;;;;3.63;0.70;;;11.50;94.80;;;;;;4994734;28;20089;-85
2021/05/22 05:15:14;;;;;;;2.40;0.60;;;11.50;94.50;;;;;;4993660;28;20077;-81
2021/05/22 05:17:41;;;;;;;3.53;0.75;;;11.60;94.40;;;;;;4993701;28;20108;-81
2021/05/22 05:20:10;;;;;;;2.70;0.88;;;11.60;94.30;;;;;;4993860;28;20130;-84
2021/05/22 05:22:38;;;;;;;2.90;0.73;;;11.70;94.20;;;;;;4993532;28;20097;-82
2021/05/22 05:25:06;;;;;;;3.30;0.95;;;11.70;94.20;;;;;;4994010;28;20093;-83
2021/05/22 05:27:33;;;;;;;3.08;0.95;;;11.80;94.10;;;;;;4991843;28;20050;-80
2021/05/22 05:30:00;;;;;;;2.92;0.70;;;11.90;94.00;;;;;;4993363;28;20137;-81
2021/05/22 05:32:26;;;;;;;4.25;0.80;;;11.90;93.70;;;;;;4993475;28;20042;-81
2021/05/22 05:34:53;;;;;;;2.60;0.73;;;12.00;93.70;;;;;;4994008;28;20078;-81
2021/05/22 05:37:20;;;;;;;3.60;1.08;;;12.00;93.60;;;;;;4993982;28;20507;-81
2021/05/22 05:39:47;;;;;;;4.10;1.00;;;12.00;93.40;;;;;;4994023;28;20085;-81
2021/05/22 05:42:14;;;;;;;3.97;1.10;;;12.00;93.20;;;;;;4994196;28;20503;-81
2021/05/22 05:44:40;;;;;;;4.43;1.10;;;12.00;93.20;;;;;;4993926;28;20077;-81
2021/05/22 05:47:07;;;;;;;5.55;1.02;;;12.00;92.80;;;;;;4993659;28;20125;-81
2021/05/22 05:49:34;;;;;;;6.55;1.13;;;12.10;92.50;;;;;;4976573;28;20539;-81
2021/05/22 05:52:01;;;;;;;4.63;1.15;;;12.10;92.40;;;;;;4984365;28;20137;-80
2021/05/22 05:54:28;;;;;;;6.13;1.23;;;12.00;92.20;;;;;;5003668;28;20050;-79
2021/05/22 05:56:55;;;;;;;5.50;1.20;;;12.10;92.10;;;;;;4988270;28;20077;-81
2021/05/22 05:59:22;;;;;;;5.05;1.17;;;12.20;91.10;;;;;;5003192;28;20073;-80
2021/05/22 06:01:49;;;;;;;5.60;1.05;;;12.20;91.30;;;;;;5005091;28;20061;-82
2021/05/22 06:04:16;;;;;;;6.88;1.20;;;12.30;91.10;;;;;;5007235;28;20042;-82
2021/05/22 06:06:42;;;;;;;4.03;1.10;;;12.40;90.60;;;;;;5011470;28;20043;-78
2021/05/22 06:09:10;;;;;;;4.32;1.10;;;12.40;90.50;;;;;;5005703;28;20098;-81
2021/05/22 06:11:38;;;;;;;3.13;1.00;;;12.50;90.50;;;;;;5005002;28;20125;-80
2021/05/22 06:14:10;;;;;;;4.40;1.05;;;12.50;90.30;;;;;;5008407;28;20046;-80
2021/05/22 06:16:37;;;;;;;4.82;1.05;;;12.50;90.20;;;;;;5012648;28;20042;-81
2021/05/22 06:19:04;;;;;;;4.05;1.15;;;12.60;90.30;;;;;;5009754;28;20132;-81
2021/05/22 06:21:31;;;;;;;4.65;1.20;;;12.60;90.30;;;;;;4992036;28;20050;-82
2021/05/22 06:23:58;;;;;;;7.72;1.40;;;12.70;90.30;;;;;;5005920;28;20046;-81
2021/05/22 06:26:25;;;;;;;4.18;1.20;;;12.80;90.20;;;;;;5006736;28;20487;-81
2021/05/22 06:28:51;;;;;;;4.05;1.13;;;12.90;89.20;;;;;;4989120;28;20069;-81
2021/05/22 06:31:19;;;;;;;4.80;1.20;;;12.90;89.30;;;;;;5004915;28;20522;-81
2021/05/22 06:33:45;;;;;;;6.20;1.20;;;12.90;89.70;;;;;;4998881;28;20074;-81
2021/05/22 06:36:12;;;;;;;6.00;1.17;;;13.00;89.20;;;;;;5004645;28;20089;-81
2021/05/22 06:38:39;;;;;;;4.68;1.02;;;13.00;88.20;;;;;;4986876;28;20483;-80
2021/05/22 06:41:06;;;;;;;3.47;1.08;;;12.90;88.00;;;;;;4992137;28;20066;-80
2021/05/22 06:43:33;;;;;;;5.93;1.20;;;12.90;88.10;;;;;;4977187;28;20050;-81
2021/05/22 06:46:02;;;;;;;3.17;1.00;;;13.00;88.20;;;;;;4997611;28;20136;-81
2021/05/22 06:48:29;;;;;;;4.53;0.93;;;12.90;88.60;;;;;;4979216;28;20046;-82
2021/05/22 06:50:57;;;;;;;4.35;1.10;;;13.00;88.30;;;;;;4996726;28;20428;-81
2021/05/22 06:53:24;;;;;;;4.32;1.00;;;13.10;88.00;;;;;;4996083;28;20480;-82
2021/05/22 06:55:51;;;;;;;7.10;1.58;;;13.10;88.10;;;;;;4996522;28;20506;-81
2021/05/22 06:58:18;;;;;;;5.25;1.10;;;13.10;86.60;;;;;;4995911;28;20137;-82
2021/05/22 07:00:45;;;;;;;4.90;1.20;;;13.10;87.50;;;;;;4996070;28;20054;-81
2021/05/22 07:03:12;;;;;;;4.80;1.02;;;13.10;87.40;;;;;;4996052;28;20046;-81
2021/05/22 07:05:39;;;;;;;4.53;1.48;;;13.20;87.10;;;;;;4995958;28;20053;-80
2021/05/22 07:08:06;;;;;;;5.22;1.17;;;13.20;86.70;;;;;;4996187;28;20078;-81
2021/05/22 07:10:33;;;;;;;4.03;1.00;;;13.20;86.60;;;;;;4978923;28;20092;-81
2021/05/22 07:13:00;;;;;;;3.90;0.90;;;13.20;86.90;;;;;;4982941;28;20093;-81
2021/05/22 07:15:26;;;;;;;3.72;0.95;;;13.30;86.10;;;;;;4996229;28;20134;-80
2021/05/22 07:17:53;;;;;;;5.25;1.33;;;13.30;86.30;;;;;;5002421;28;20042;-81
2021/05/22 07:20:21;;;;;;;5.60;1.17;;;13.30;86.70;;;;;;4988126;28;20053;-83
2021/05/22 07:22:51;;;;;;;4.57;1.20;;;13.30;86.80;;;;;;4982585;28;20065;-80
2021/05/22 07:25:18;;;;;;;4.25;1.05;;;13.40;86.90;;;;;;4961945;28;20051;-81
2021/05/22 07:27:44;;;;;;;4.63;1.00;;;13.40;86.20;;;;;;4988606;28;20073;-78
2021/05/22 07:30:14;;;;;;;4.10;0.90;;;13.40;84.20;;;;;;4995765;28;20050;-80
2021/05/22 07:32:41;;;;;;;5.15;0.90;;;13.40;83.20;;;;;;4995253;28;20054;-81
2021/05/22 07:35:11;;;;;;;4.20;1.10;;;13.40;83.00;;;;;;4994913;28;20042;-81
2021/05/22 07:37:39;;;;;;;4.45;1.00;;;13.40;81.00;;;;;;4994832;28;20550;-80
2021/05/22 07:40:10;;;;;;;4.75;1.33;;;13.40;81.50;;;;;;4979963;28;20050;-80
2021/05/22 07:42:37;;;;;;;5.28;1.25;;;13.40;80.60;;;;;;4995738;28;20503;-80
2021/05/22 07:45:06;;;;;;;4.85;1.40;;;13.40;81.70;;;;;;4995530;28;20046;-81
2021/05/22 07:47:32;;;;;;;4.88;1.00;;;13.40;81.70;;;;;;4995123;28;20126;-82
2021/05/22 07:49:59;;;;;;;4.38;1.10;;;13.30;81.50;;;;;;4995757;28;20145;-82
2021/05/22 07:52:27;;;;;;;4.82;1.00;;;13.30;81.60;;;;;;4978045;28;20057;-81
2021/05/22 07:54:54;;;;;;;3.58;0.88;;;13.30;80.70;;;;;;4994389;28;20047;-82
2021/05/22 07:57:21;;;;;;;4.85;1.02;;;13.40;78.10;;;;;;4978372;28;20093;-81
2021/05/22 07:59:49;;;;;;;4.28;1.10;;;13.40;79.80;;;;;;4994427;28;20452;-77
2021/05/22 08:02:16;;;;;;;3.88;0.90;;;13.50;78.30;;;;;;4991855;28;20081;-83
2021/05/22 08:04:43;;;;;;;4.22;1.05;;;13.60;76.50;;;;;;4994109;28;20042;-81
2021/05/22 08:07:10;;;;;;;3.58;1.10;;;13.60;74.50;;;;;;4994864;28;20396;-81
2021/05/22 08:09:37;;;;;;;6.85;1.10;;;13.60;74.60;;;;;;4994805;28;20066;-81
2021/05/22 08:12:05;;;;;;;4.20;0.90;;;13.70;73.30;;;;;;4994687;28;20081;-81
2021/05/22 08:14:33;;;;;;;4.10;1.00;;;13.80;73.80;;;;;;4977853;28;20114;-81
2021/05/22 08:16:59;;;;;;;5.18;1.10;;;13.70;73.00;;;;;;4994501;28;20165;-82
2021/05/22 08:19:26;;;;;;;4.22;0.88;;;13.80;70.80;;;;;;4994326;28;20042;-81
2021/05/22 08:21:53;;;;;;;3.10;0.80;;;13.90;70.00;;;;;;4994452;28;20074;-80
2021/05/22 08:24:19;;;;;;;3.72;1.02;;;13.90;70.70;;;;;;4978103;28;20137;-81
2021/05/22 08:26:46;;;;;;;5.55;1.33;;;14.00;68.20;;;;;;4994814;28;20142;-80
2021/05/22 08:29:14;;;;;;;2.85;0.90;;;14.10;66.20;;;;;;4994405;28;20140;-81
2021/05/22 08:31:41;;;;;;;3.95;0.80;;;14.20;66.30;;;;;;4994451;28;20040;-76
2021/05/22 08:34:08;;;;;;;4.13;1.02;;;14.30;65.70;;;;;;4994463;28;20496;-77
2021/05/22 08:36:34;;;;;;;4.90;0.88;;;14.30;67.60;;;;;;4994872;28;20152;-77
2021/05/22 08:39:01;;;;;;;4.93;1.10;;;14.40;64.40;;;;;;4995099;28;20137;-77
2021/05/22 08:41:33;;;;;;;3.53;0.82;;;14.40;63.70;;;;;;4977649;28;20134;-77
2021/05/22 08:44:02;;;;;;;5.50;1.00;;;14.50;62.90;;;;;;4994756;28;20492;-77
2021/05/22 08:46:31;;;;;;;3.53;0.90;;;14.50;61.70;;;;;;4994927;28;20542;-78
2021/05/22 08:48:59;;;;;;;3.05;0.82;;;14.50;61.70;;;;;;4995024;28;20562;-78
2021/05/22 08:51:26;;;;;;;5.13;1.08;;;14.50;62.00;;;;;;4994880;28;20452;-78
2021/05/22 08:53:53;;;;;;;5.03;0.90;;;14.60;62.30;;;;;;4994711;28;20093;-79
2021/05/22 08:56:19;;;;;;;4.55;1.00;;;14.60;62.80;;;;;;4994780;28;20050;-79
2021/05/22 08:58:47;;;;;;;4.07;0.82;;;14.60;61.30;;;;;;4994652;28;20059;-77
2021/05/22 09:01:14;;;;;;;3.42;0.80;;;14.60;61.90;;;;;;4994309;28;20545;-79
2021/05/22 09:03:41;;;;;;;3.13;0.90;;;14.60;60.50;;;;;;4977387;28;20120;-78
2021/05/22 09:06:09;;;;;;;3.80;0.90;;;14.60;60.00;;;;;;4993764;28;20133;-77
2021/05/22 09:08:35;;;;;;;4.75;1.00;;;14.60;61.10;;;;;;4994349;28;20124;-77
2021/05/22 09:11:04;;;;;;;3.97;0.88;;;14.60;60.10;;;;;;4994262;28;20141;-77
2021/05/22 09:13:34;;;;;;;5.68;1.10;;;14.70;60.00;;;;;;4993956;28;20082;-79
2021/05/22 09:16:04;;;;;;;3.78;0.98;;;14.70;61.10;;;;;;4993868;28;20081;-78
2021/05/22 09:18:36;;;;;;;3.55;0.77;;;14.80;61.00;;;;;;4994469;28;20050;-77
2021/05/22 09:21:06;;;;;;;5.47;0.73;;;14.80;61.20;;;;;;4977013;28;20498;-79
2021/05/22 09:23:36;;;;;;;2.70;0.70;;;14.90;60.30;;;;;;4994106;28;20099;-78
2021/05/22 09:26:06;;;;;;;3.65;0.68;;;14.90;59.10;;;;;;4994231;28;20092;-77
2021/05/22 09:28:35;;;;;;;4.40;0.90;;;15.00;57.70;;;;;;4994295;28;20134;-77
2021/05/22 09:31:08;;;;;;;3.25;0.80;;;14.90;57.50;;;;;;4993904;28;20551;-79
2021/05/22 09:33:36;;;;;;;3.33;0.95;;;15.00;56.00;;;;;;4994162;28;20460;-78
2021/05/22 09:36:07;;;;;;;5.55;0.80;;;15.00;55.90;;;;;;4995981;28;20101;-79
2021/05/22 09:38:37;;;;;;;6.07;1.08;;;15.00;57.10;;;;;;4995946;28;20053;-79
2021/05/22 09:41:17;;;;;;;3.53;0.80;;;15.20;57.40;;;;;;4993518;28;20046;-77
2021/05/22 09:44:06;;;;;;;2.72;0.70;;;15.30;56.50;;;;;;4993161;28;20133;-78
2021/05/22 09:46:33;;;;;;;3.28;0.82;;;15.40;57.00;;;;;;4981618;28;20049;-78
2021/05/22 09:49:04;;;;;;;3.80;0.73;;;15.50;55.30;;;;;;4992510;28;20125;-78
2021/05/22 09:51:31;;;;;;;4.05;0.90;;;15.50;54.40;;;;;;4989064;28;20133;-78
2021/05/22 09:53:58;;;;;;;3.13;1.08;;;15.50;54.80;;;;;;4993225;28;20054;-78
2021/05/22 09:56:26;;;;;;;3.78;0.93;;;15.50;55.50;;;;;;4993718;28;20126;-78
2021/05/22 09:58:54;;;;;;;3.25;0.80;;;15.60;54.60;;;;;;4993559;28;20138;-78
2021/05/22 10:01:25;;;;;;;3.15;0.80;;;15.50;55.20;;;;;;4992432;28;20638;-78
2021/05/22 10:03:52;;;;;;;2.78;0.52;;;15.50;53.80;;;;;;4993605;28;20047;-78
2021/05/22 10:06:19;;;;;;;3.67;0.75;;;15.50;53.00;;;;;;4993870;28;20082;-78
2021/05/22 10:08:46;;;;;;;2.70;0.70;;;15.50;53.20;;;;;;4993471;28;20058;-78
2021/05/22 10:11:14;;;;;;;2.60;0.63;;;15.40;53.90;;;;;;4993609;28;20137;-78
2021/05/22 10:13:42;;;;;;;3.90;0.85;;;15.40;53.00;;;;;;4993413;28;20057;-78
2021/05/22 10:16:09;;;;;;;6.10;1.17;;;15.40;53.70;;;;;;4993457;28;20057;-78
2021/05/22 10:18:36;;;;;;;2.33;0.50;;;15.50;53.00;;;;;;4995270;28;20499;-78
2021/05/22 10:21:05;;;;;;;3.15;0.75;;;15.50;54.40;;;;;;4997287;28;20084;-78
2021/05/22 10:23:31;;;;;;;2.65;0.70;;;15.60;54.40;;;;;;4997368;28;20108;-78
2021/05/22 10:26:00;;;;;;;2.67;0.60;;;15.60;52.70;;;;;;4997323;28;20082;-78
2021/05/22 10:28:27;;;;;;;3.95;0.77;;;15.60;51.80;;;;;;4997202;28;20046;-78
2021/05/22 10:30:54;;;;;;;2.85;0.75;;;15.60;52.30;;;;;;4997454;28;20066;-79
2021/05/22 10:33:21;;;;;;;3.33;0.80;;;15.60;52.30;;;;;;4996981;28;20126;-79
2021/05/22 10:35:50;;;;;;;3.15;0.80;;;15.60;52.40;;;;;;4997088;28;20119;-79
2021/05/22 10:38:51;;;;;;;3.35;0.80;;;15.60;51.80;;;;;;4996981;28;20050;-79
2021/05/22 10:41:38;;;;;;;4.05;0.90;;;15.60;51.10;;;;;;4936811;29;20490;-79
2021/05/22 10:44:06;;;;;;;2.47;0.80;;;15.60;52.30;;;;;;4992899;28;20054;-78
2021/05/22 10:46:33;;;;;;;4.93;0.70;;;15.60;54.20;;;;;;4996961;28;20050;-79
2021/05/22 10:49:02;;;;;;;3.70;0.80;;;15.70;51.40;;;;;;4997107;28;20077;-79
2021/05/22 10:51:35;;;;;;;3.08;0.80;;;15.90;50.50;;;;;;4996682;28;20089;-79
2021/05/22 10:54:10;;;;;;;2.83;0.90;;;15.90;49.70;;;;;;4996559;28;20051;-79
2021/05/22 10:56:59;;;;;;;3.55;0.60;;;16.00;48.90;;;;;;4996876;28;20054;-79
2021/05/22 10:59:27;;;;;;;3.88;1.20;;;16.00;47.70;;;;;;4996748;28;20567;-79
2021/05/22 11:01:54;;;;;;;5.47;1.90;;;16.10;47.30;;;;;;4996356;28;20142;-79
2021/05/22 11:04:30;;;;;;;3.50;1.20;;;16.10;49.30;;;;;;4996913;28;20050;-79
2021/05/22 11:07:03;;;;;;;4.18;0.90;;;16.20;50.50;;;;;;4996715;28;20109;-79
2021/05/22 11:09:56;;;;;;;3.53;0.77;;;16.20;47.80;;;;;;4999273;28;20058;-79
2021/05/22 11:12:44;;;;;;;3.10;0.70;;;16.30;48.80;;;;;;4988504;28;20070;-79
2021/05/22 11:15:48;;;;;;;3.53;0.90;;;16.40;48.80;;;;;;4988341;28;20053;-79
2021/05/22 11:18:16;;;;;;;;;;;16.40;48.40;;;;;;4996774;28;20046;-79
2021/05/22 11:21:12;;;;;;;3.25;0.63;;;16.50;47.60;;;;;;4996438;28;19922;-78
2021/05/22 11:24:05;;;;;;;2.97;0.68;;;16.50;46.90;;;;;;4978824;28;20055;-78
2021/05/22 11:27:01;;;;;;;4.60;0.93;;;16.60;47.50;;;;;;4996334;28;20058;-79
2021/05/22 11:29:57;;;;;;;3.75;0.60;;;16.70;47.30;;;;;;4983392;28;20046;-79
2021/05/22 11:33:01;;;;;;;4.82;0.95;;;16.60;48.30;;;;;;4995944;28;20539;-79
2021/05/22 11:35:40;;;;;;;2.92;0.80;;;16.60;48.60;;;;;;4978769;28;20129;-78
2021/05/22 11:38:35;;;;;;;1.40;0.40;;;16.60;46.70;;;;;;4996024;28;20125;-79
2021/05/22 11:41:08;;;;;;;3.80;0.80;;;16.70;45.70;;;;;;4995926;28;20054;-79
2021/05/22 11:43:36;;;;;;;2.85;1.10;;;16.70;46.50;;;;;;4995943;28;20186;-79
2021/05/22 11:46:06;;;;;;;3.78;0.77;;;16.80;46.50;;;;;;4995726;28;20495;-79
2021/05/22 11:48:36;;;;;;;2.63;0.70;;;16.90;45.60;;;;;;4995971;28;20419;-78
2021/05/22 11:51:17;;;;;;;4.65;0.80;;;17.00;46.60;;;;;;4995838;28;20046;-79
2021/05/22 11:53:52;;;;;;;2.53;0.70;;;17.00;45.90;;;;;;4995634;28;20057;-79
2021/05/22 11:56:20;;;;;;;3.35;0.75;;;17.10;45.00;;;;;;4995561;28;20047;-79
2021/05/22 11:58:49;;;;;;;2.10;0.70;;;17.20;44.40;;;;;;4995514;28;20150;-79
2021/05/22 12:01:18;;;;;;;3.47;0.80;;;17.10;45.00;;;;;;4995552;28;20579;-78
2021/05/22 12:03:47;;;;;;;4.32;0.73;;;17.20;43.80;;;;;;4995450;28;20047;-79
2021/05/22 12:06:28;;;;;;;2.30;0.50;;;17.20;43.30;;;;;;4995458;28;20499;-79
2021/05/22 12:09:05;;;;;;;3.58;0.60;;;17.20;44.20;;;;;;5002139;28;20058;-79
2021/05/22 12:11:33;;;;;;;4.72;1.08;;;17.30;43.90;;;;;;5003048;28;20516;-79
2021/05/22 12:14:03;;;;;;;2.90;0.70;;;17.40;44.50;;;;;;4995315;28;20109;-78
2021/05/22 12:16:30;;;;;;;3.67;1.02;;;17.40;45.00;;;;;;4994802;28;20129;-78
2021/05/22 12:18:58;;;;;;;4.20;0.93;;;17.50;44.20;;;;;;4995307;28;20128;-79
2021/05/22 12:21:29;;;;;;;1.95;0.70;;;17.60;44.20;;;;;;4994849;28;20575;-79
2021/05/22 12:24:07;;;;;;;3.50;0.70;;;17.60;44.90;;;;;;4994718;28;20058;-79
2021/05/22 12:26:35;;;;;;;3.75;0.90;;;17.70;44.70;;;;;;4995040;28;20130;-79
2021/05/22 12:29:01;;;;;;;3.42;0.77;;;17.80;43.10;;;;;;4994595;28;20077;-80
2021/05/22 12:31:28;;;;;;;1.98;0.57;;;17.80;44.20;;;;;;4994654;28;20185;-79
2021/05/22 12:34:08;;;;;;;2.63;0.68;;;18.00;43.30;;;;;;4994588;28;20142;-82
2021/05/22 12:36:35;;;;;;;5.03;1.30;;;18.00;44.00;;;;;;4993985;28;20552;-82
2021/05/22 12:39:12;;;;;;;3.25;0.90;;;18.00;42.40;;;;;;4990784;28;20141;-82
2021/05/22 12:41:40;;;;;;;3.50;0.70;;;18.20;44.00;;;;;;4991272;28;20061;-82
2021/05/22 12:44:09;;;;;;;2.10;0.63;;;18.30;43.60;;;;;;4974391;28;20472;-81
2021/05/22 12:46:38;;;;;;;2.67;0.55;;;18.40;41.70;;;;;;4991721;28;20054;-81
2021/05/22 12:49:18;;;;;;;2.47;0.68;;;18.40;42.20;;;;;;4991640;28;20100;-81
2021/05/22 12:51:47;;;;;;;2.92;0.70;;;18.60;42.10;;;;;;4973569;28;20477;-81
2021/05/22 12:54:30;;;;;;;2.20;0.50;;;18.60;42.20;;;;;;4989773;28;20141;-81
2021/05/22 12:57:04;;;;;;;3.40;1.05;;;18.70;40.50;;;;;;4990409;28;20116;-82
2021/05/22 12:59:32;;;;;;;2.90;0.90;;;18.70;40.50;;;;;;4991409;28;20066;-81